Time;durP1;ratioP1;P1;durP2;ratioP2;P2;SDS_P1;SDS_P2;PMS_P1;PMS_P2;Temp;Humidity;BMP_temperature;BMP_pressure;BME280_temperature;BME280_humidity;BME280_pressure;Samples;Min_cycle;Max_cycle;Signal;HPM_P1;HPM_P2
2022/03/06 00:00:26;;;;;;;12.57;7.20;;;;;;;4.34;38.70;101024.41;5015251;28;20395;-73
2022/03/06 00:02:53;;;;;;;17.27;8.02;;;;;;;4.28;39.53;101010.72;5031910;28;20049;-73
2022/03/06 00:05:21;;;;;;;18.70;8.52;;;;;;;4.29;39.02;101019.66;5032647;28;20059;-73
2022/03/06 00:07:50;;;;;;;19.02;9.18;;;;;;;4.24;39.17;101014.91;5033023;28;20049;-73
2022/03/06 00:10:18;;;;;;;20.88;9.32;;;;;;;4.19;39.68;101017.47;5032487;28;20049;-73
2022/03/06 00:12:46;;;;;;;18.83;7.82;;;;;;;4.06;40.03;101012.22;5032987;28;20053;-73
2022/03/06 00:15:14;;;;;;;17.73;8.70;;;;;;;4.10;39.91;101018.84;5033749;28;20037;-73
2022/03/06 00:17:41;;;;;;;19.48;9.43;;;;;;;4.05;40.50;101007.84;5033585;28;20044;-73
2022/03/06 00:20:10;;;;;;;16.23;8.65;;;;;;;3.98;40.86;101014.16;5033339;28;20050;-73
2022/03/06 00:22:38;;;;;;;17.42;9.18;;;;;;;3.92;41.23;101011.53;5032852;28;20072;-73
2022/03/06 00:25:06;;;;;;;19.63;8.63;;;;;;;3.86;40.82;101024.91;5032164;28;20041;-73
2022/03/06 00:27:34;;;;;;;20.13;9.05;;;;;;;3.84;41.91;101021.59;5019486;28;20042;-73
2022/03/06 00:30:04;;;;;;;19.15;9.02;;;;;;;3.82;41.96;101020.97;5032620;28;20054;-73
2022/03/06 00:32:32;;;;;;;21.33;10.07;;;;;;;3.81;42.58;101022.03;5032128;28;20037;-73
2022/03/06 00:35:03;;;;;;;18.52;8.85;;;;;;;3.78;41.92;101016.25;5032661;28;20049;-73
2022/03/06 00:37:32;;;;;;;20.75;8.80;;;;;;;3.80;42.31;101025.00;5032301;28;20042;-73
2022/03/06 00:40:01;;;;;;;18.63;9.57;;;;;;;3.78;42.01;101021.66;5032821;28;20048;-73
2022/03/06 00:42:29;;;;;;;21.35;9.60;;;;;;;3.73;42.63;101027.75;5032338;28;20045;-74
2022/03/06 00:44:57;;;;;;;16.67;9.18;;;;;;;3.70;42.37;101026.31;5032674;28;20046;-73
2022/03/06 00:47:25;;;;;;;15.60;8.45;;;;;;;3.65;42.42;101023.44;5029737;28;20050;-73
2022/03/06 00:49:53;;;;;;;18.45;8.93;;;;;;;3.67;42.88;101034.88;5032857;28;20480;-73
2022/03/06 00:52:21;;;;;;;19.45;9.10;;;;;;;3.75;42.44;101029.19;5031851;28;20049;-73
2022/03/06 00:54:48;;;;;;;19.70;9.00;;;;;;;3.68;43.24;101023.00;5032799;28;20053;-73
2022/03/06 00:57:16;;;;;;;20.15;8.68;;;;;;;3.66;42.47;101024.28;5033443;28;20053;-73
2022/03/06 00:59:44;;;;;;;20.38;9.38;;;;;;;3.63;42.34;101020.16;5032871;28;20722;-73
2022/03/06 01:02:12;;;;;;;19.20;8.38;;;;;;;3.61;42.62;101027.63;5031922;28;20072;-73
2022/03/06 01:04:41;;;;;;;19.00;9.15;;;;;;;3.64;42.39;101019.09;5032585;28;20054;-73
2022/03/06 01:07:08;;;;;;;21.17;9.23;;;;;;;3.63;42.53;101022.84;5014747;28;20076;-73
2022/03/06 01:09:36;;;;;;;17.98;8.60;;;;;;;3.69;43.34;101023.81;5032442;28;20056;-73
2022/03/06 01:12:04;;;;;;;17.23;9.23;;;;;;;3.70;42.06;101018.19;5032663;28;20049;-73
2022/03/06 01:14:32;;;;;;;20.30;8.93;;;;;;;3.69;42.17;101013.84;5033087;28;20042;-72
2022/03/06 01:17:00;;;;;;;22.67;10.02;;;;;;;3.66;42.93;101016.97;5032614;28;20046;-73
2022/03/06 01:19:28;;;;;;;16.67;8.38;;;;;;;3.65;43.03;101014.50;5032351;28;20739;-73
2022/03/06 01:21:57;;;;;;;16.27;8.43;;;;;;;3.65;42.44;101009.09;5047685;28;20049;-73
2022/03/06 01:24:26;;;;;;;17.15;9.20;;;;;;;3.67;42.22;101013.22;5017778;28;20385;-73
2022/03/06 01:26:54;;;;;;;17.67;9.30;;;;;;;3.72;43.10;101007.97;5034838;28;20048;-73
2022/03/06 01:29:22;;;;;;;19.23;9.35;;;;;;;3.72;41.86;101013.38;5034336;28;20049;-74
2022/03/06 01:31:50;;;;;;;17.20;9.02;;;;;;;3.74;41.80;101005.88;5034447;28;20060;-73
2022/03/06 01:34:18;;;;;;;19.17;9.23;;;;;;;3.72;42.36;101001.72;5033807;28;20041;-73
2022/03/06 01:36:46;;;;;;;15.95;7.97;;;;;;;3.76;42.04;100998.34;5034722;28;20392;-73
2022/03/06 01:39:14;;;;;;;16.05;8.88;;;;;;;3.79;41.59;101004.34;5034608;28;20041;-73
2022/03/06 01:41:42;;;;;;;16.98;8.95;;;;;;;3.77;42.50;100993.78;5034146;28;20045;-73
2022/03/06 01:44:14;;;;;;;18.02;9.07;;;;;;;3.84;41.90;100993.69;5034479;28;20060;-73
2022/03/06 01:46:45;;;;;;;18.20;9.80;;;;;;;3.90;41.64;100996.34;5034038;28;20412;-74
2022/03/06 01:49:14;;;;;;;19.63;9.70;;;;;;;3.90;41.94;100990.09;5000350;28;20045;-73
2022/03/06 01:51:43;;;;;;;20.30;9.52;;;;;;;3.84;43.26;100994.53;5033858;28;20046;-73
2022/03/06 01:54:13;;;;;;;17.48;8.52;;;;;;;3.89;42.82;100996.56;5033948;28;20100;-73
2022/03/06 01:56:42;;;;;;;15.65;8.90;;;;;;;3.94;42.55;100990.44;5033827;28;20439;-73
2022/03/06 01:59:10;;;;;;;16.80;8.57;;;;;;;3.96;42.24;100986.47;5016050;28;20056;-73
2022/03/06 02:01:38;;;;;;;17.40;8.57;;;;;;;3.97;42.72;100980.00;5033404;28;20049;-73
2022/03/06 02:04:06;;;;;;;15.07;8.82;;;;;;;4.05;42.10;100986.19;5034043;28;20492;-73
2022/03/06 02:06:36;;;;;;;19.58;9.73;;;;;;;4.02;43.19;100990.97;5033445;28;20053;-73
2022/03/06 02:09:04;;;;;;;21.13;10.07;;;;;;;4.17;42.28;100978.97;5033438;28;20046;-73
2022/03/06 02:11:32;;;;;;;14.98;8.60;;;;;;;4.05;42.18;100973.44;5032652;28;20084;-73
2022/03/06 02:14:02;;;;;;;19.33;8.60;;;;;;;4.00;42.05;100971.44;5034427;28;20061;-73
2022/03/06 02:16:32;;;;;;;18.08;9.32;;;;;;;3.89;42.74;100974.88;5033410;28;20053;-73
2022/03/06 02:19:00;;;;;;;18.45;8.80;;;;;;;3.87;42.79;100966.19;5033249;28;20045;-73
2022/03/06 02:21:28;;;;;;;15.63;8.55;;;;;;;3.89;42.81;100964.91;5033537;28;20053;-73
2022/03/06 02:23:56;;;;;;;18.80;9.05;;;;;;;3.96;42.58;100962.09;5033118;28;20054;-73
2022/03/06 02:26:24;;;;;;;18.02;8.98;;;;;;;3.95;42.16;100957.75;5033348;28;20400;-73
2022/03/06 02:28:53;;;;;;;16.27;9.15;;;;;;;3.94;42.89;100953.38;5032635;28;20061;-73
2022/03/06 02:31:21;;;;;;;18.00;8.80;;;;;;;3.86;42.47;100956.41;5033601;28;20056;-73
2022/03/06 02:33:49;;;;;;;17.88;9.35;;;;;;;3.76;42.12;100960.44;5032145;28;20515;-73
2022/03/06 02:36:17;;;;;;;18.75;9.55;;;;;;;3.73;42.46;100957.38;5032994;28;20052;-74
2022/03/06 02:38:45;;;;;;;21.35;8.80;;;;;;;3.77;42.34;100961.28;5032876;28;20053;-73
2022/03/06 02:41:13;;;;;;;20.92;9.48;;;;;;;3.78;42.91;100951.28;5033341;28;20507;-73
2022/03/06 02:43:41;;;;;;;20.40;8.43;;;;;;;3.81;42.44;100946.22;5032778;28;20049;-73
2022/03/06 02:46:08;;;;;;;18.73;8.40;;;;;;;3.86;43.14;100953.69;5033103;28;20392;-73
2022/03/06 02:48:37;;;;;;;18.50;8.65;;;;;;;4.16;42.19;100955.63;5033075;28;20054;-73
2022/03/06 02:51:05;;;;;;;19.98;9.70;;;;;;;4.14;42.67;100960.44;5015657;28;20041;-73
2022/03/06 02:53:33;;;;;;;17.02;8.65;;;;;;;4.07;41.99;100954.28;5033100;28;20045;-73
2022/03/06 02:56:02;;;;;;;15.95;8.63;;;;;;;4.07;42.43;100955.13;5031827;28;20060;-73
2022/03/06 02:58:30;;;;;;;18.20;8.93;;;;;;;4.07;43.13;100954.28;5032416;28;20057;-73
2022/03/06 03:00:58;;;;;;;16.23;8.70;;;;;;;4.06;42.08;100958.84;5032389;28;20053;-73
2022/03/06 03:03:26;;;;;;;19.20;8.57;;;;;;;4.10;42.67;100959.25;5032902;28;20053;-73
2022/03/06 03:05:54;;;;;;;15.18;8.25;;;;;;;4.14;42.72;100960.44;5032705;28;20046;-73
2022/03/06 03:08:22;;;;;;;16.15;8.43;;;;;;;4.13;41.85;100959.63;5032840;28;20041;-73
2022/03/06 03:10:50;;;;;;;15.48;7.53;;;;;;;4.16;41.64;100958.34;5032342;28;20052;-73
2022/03/06 03:13:18;;;;;;;13.15;6.70;;;;;;;4.17;40.96;100957.28;5014732;28;20519;-73
2022/03/06 03:15:46;;;;;;;14.23;7.47;;;;;;;4.22;41.42;100954.72;5032665;28;20041;-73
2022/03/06 03:18:13;;;;;;;15.40;7.88;;;;;;;4.26;40.31;100957.81;5015459;28;20056;-73
2022/03/06 03:20:41;;;;;;;16.25;8.38;;;;;;;4.28;40.76;100961.94;5031992;28;20061;-73
2022/03/06 03:23:09;;;;;;;14.45;7.40;;;;;;;4.28;41.04;100966.50;5031364;28;20049;-73
2022/03/06 03:25:37;;;;;;;17.05;7.85;;;;;;;4.29;40.99;100963.59;5032498;28;20041;-73
2022/03/06 03:28:05;;;;;;;14.80;7.05;;;;;;;4.26;40.33;100953.19;5032028;28;20410;-73
2022/03/06 03:30:33;;;;;;;13.55;7.78;;;;;;;4.27;40.41;100963.00;5032276;28;20057;-72
2022/03/06 03:33:01;;;;;;;18.73;8.30;;;;;;;4.27;40.74;100963.00;5031850;28;20053;-72
2022/03/06 03:35:29;;;;;;;16.55;7.72;;;;;;;4.26;39.79;100964.03;5030490;28;20435;-72
2022/03/06 03:37:57;;;;;;;13.75;7.68;;;;;;;4.24;40.50;100971.56;5030528;28;20049;-72
2022/03/06 03:40:25;;;;;;;15.77;7.15;;;;;;;4.21;40.24;100969.28;5031573;28;20045;-72
2022/03/06 03:42:53;;;;;;;16.33;7.07;;;;;;;4.28;40.86;100964.66;5017508;28;20053;-72
2022/03/06 03:45:21;;;;;;;13.80;7.50;;;;;;;4.24;40.15;100971.56;5031453;28;20491;-72
2022/03/06 03:47:49;;;;;;;13.02;7.40;;;;;;;4.21;39.79;100972.00;5031482;28;20136;-72
2022/03/06 03:50:17;;;;;;;13.98;8.02;;;;;;;4.17;40.58;100976.25;5032294;28;20048;-73
2022/03/06 03:52:44;;;;;;;17.75;8.00;;;;;;;4.19;39.96;100978.72;5031817;28;20052;-72
2022/03/06 03:55:12;;;;;;;14.90;7.95;;;;;;;4.25;40.59;100972.41;5014087;28;20148;-72
2022/03/06 03:57:40;;;;;;;14.52;6.72;;;;;;;4.24;39.97;100984.28;5031330;28;20121;-72
2022/03/06 04:00:09;;;;;;;17.15;7.82;;;;;;;4.23;39.72;100978.03;5031084;28;20060;-72
2022/03/06 04:02:37;;;;;;;13.48;7.28;;;;;;;4.23;40.76;100978.03;5031953;28;20042;-72
2022/03/06 04:05:05;;;;;;;16.55;8.25;;;;;;;4.30;41.68;100983.34;5031876;28;20044;-72
2022/03/06 04:07:33;;;;;;;14.70;7.68;;;;;;;4.42;42.83;100978.00;5031614;28;20050;-72
2022/03/06 04:10:02;;;;;;;15.30;7.90;;;;;;;4.42;42.87;100983.44;5030954;28;20098;-72
2022/03/06 04:12:30;;;;;;;16.10;8.65;;;;;;;4.25;45.02;100975.94;5031638;28;20057;-72
2022/03/06 04:14:58;;;;;;;17.50;7.93;;;;;;;4.12;43.97;100978.81;5031123;28;20053;-72
2022/03/06 04:17:26;;;;;;;14.55;8.63;;;;;;;4.16;43.92;100983.53;5031911;28;20472;-72
2022/03/06 04:19:53;;;;;;;18.15;8.05;;;;;;;4.18;43.09;100983.31;5031729;28;20056;-72
2022/03/06 04:22:22;;;;;;;15.65;8.18;;;;;;;4.43;41.74;100988.63;5031662;28;20045;-72
2022/03/06 04:24:49;;;;;;;13.32;7.60;;;;;;;4.43;41.09;100983.22;5031734;28;20046;-72
2022/03/06 04:27:17;;;;;;;15.70;7.55;;;;;;;4.36;41.24;100984.34;5031154;28;20046;-72
2022/03/06 04:29:45;;;;;;;14.63;8.00;;;;;;;4.24;42.31;100995.94;5031409;28;20500;-72
2022/03/06 04:32:13;;;;;;;18.02;8.38;;;;;;;4.19;41.47;100984.97;5031315;28;20056;-72
2022/03/06 04:34:41;;;;;;;15.30;7.55;;;;;;;4.18;40.84;100988.72;5013308;28;20071;-72
2022/03/06 04:37:09;;;;;;;14.02;7.28;;;;;;;4.26;40.82;100980.28;5031164;28;20049;-72
2022/03/06 04:39:37;;;;;;;12.15;6.97;;;;;;;4.43;40.79;100995.91;5031490;28;20053;-73
2022/03/06 04:42:06;;;;;;;15.13;6.85;;;;;;;4.37;41.41;100991.41;5031588;28;20057;-72
2022/03/06 04:44:34;;;;;;;11.93;6.95;;;;;;;4.34;40.89;100994.59;5031034;28;20060;-72
2022/03/06 04:47:02;;;;;;;13.00;6.82;;;;;;;4.31;40.09;100985.03;5030933;28;20057;-72
2022/03/06 04:49:30;;;;;;;13.40;6.28;;;;;;;4.34;39.95;100989.19;5031301;28;20049;-72
2022/03/06 04:51:58;;;;;;;12.00;6.65;;;;;;;4.38;39.48;100985.78;5030439;28;20049;-72
2022/03/06 04:54:26;;;;;;;9.68;5.70;;;;;;;4.37;38.98;100986.00;5031714;28;20068;-72
2022/03/06 04:56:54;;;;;;;13.32;6.50;;;;;;;4.40;39.51;100985.56;5031598;28;20072;-72
2022/03/06 04:59:22;;;;;;;10.35;5.60;;;;;;;4.41;38.51;100982.59;5035207;28;20053;-72
2022/03/06 05:01:50;;;;;;;11.25;5.93;;;;;;;4.44;38.02;100995.69;5034671;28;20041;-72
2022/03/06 05:04:18;;;;;;;10.77;6.45;;;;;;;4.48;39.10;100997.94;5034908;28;20049;-72
2022/03/06 05:06:46;;;;;;;13.77;6.28;;;;;;;4.50;38.52;100995.84;5035030;28;20059;-72
2022/03/06 05:09:14;;;;;;;14.45;6.03;;;;;;;4.42;38.48;100991.56;5017428;28;20049;-73
2022/03/06 05:11:42;;;;;;;12.77;6.22;;;;;;;4.44;38.35;100997.56;5034939;28;20049;-73
2022/03/06 05:14:10;;;;;;;11.20;5.90;;;;;;;4.42;38.17;100996.97;5035089;28;20049;-73
2022/03/06 05:16:38;;;;;;;12.65;5.85;;;;;;;4.49;38.57;100991.50;5034873;28;20046;-72
2022/03/06 05:19:06;;;;;;;10.65;6.63;;;;;;;4.48;38.62;100987.94;5034927;28;20045;-72
2022/03/06 05:21:34;;;;;;;12.00;6.32;;;;;;;4.55;38.29;100994.09;5034841;28;20067;-72
2022/03/06 05:24:03;;;;;;;11.82;5.68;;;;;;;4.53;37.61;100993.50;5034768;28;20049;-73
2022/03/06 05:26:31;;;;;;;11.27;6.10;;;;;;;4.52;37.63;100997.28;5017383;28;20045;-72
2022/03/06 05:28:59;;;;;;;9.75;5.40;;;;;;;4.40;37.86;100991.78;5034608;28;20041;-73
2022/03/06 05:31:26;;;;;;;11.88;6.28;;;;;;;4.39;38.83;101000.13;5034501;28;20481;-72
2022/03/06 05:33:54;;;;;;;10.80;5.90;;;;;;;4.40;38.75;100993.69;5034138;28;20048;-72
2022/03/06 05:36:22;;;;;;;10.98;6.07;;;;;;;4.46;37.80;100998.19;5034481;28;20062;-73
2022/03/06 05:38:50;;;;;;;11.27;5.90;;;;;;;4.44;38.35;101003.00;5034566;28;20048;-73
2022/03/06 05:41:18;;;;;;;11.82;5.82;;;;;;;4.45;39.00;101001.94;5034039;28;20041;-73
2022/03/06 05:43:47;;;;;;;11.43;5.30;;;;;;;4.51;38.11;100998.34;5034416;28;20053;-73
2022/03/06 05:46:14;;;;;;;11.27;6.45;;;;;;;4.45;38.16;101012.78;5034231;28;20037;-73
2022/03/06 05:48:42;;;;;;;12.85;6.38;;;;;;;4.44;37.55;101000.28;5034155;28;20526;-73
2022/03/06 05:51:11;;;;;;;11.25;5.70;;;;;;;4.48;37.63;101003.34;5033379;28;20057;-73
2022/03/06 05:53:38;;;;;;;12.45;6.05;;;;;;;4.44;38.84;101000.28;5034191;28;20033;-73
2022/03/06 05:56:07;;;;;;;10.52;5.38;;;;;;;4.44;38.44;101013.84;5033533;28;20550;-73
2022/03/06 05:58:34;;;;;;;12.85;6.28;;;;;;;4.49;37.83;101007.75;5034206;28;20049;-73
2022/03/06 06:01:02;;;;;;;11.68;5.78;;;;;;;4.51;37.17;101011.03;5033233;28;20064;-73
2022/03/06 06:03:30;;;;;;;12.38;6.15;;;;;;;4.64;38.51;101004.63;5034904;28;20037;-73
2022/03/06 06:05:58;;;;;;;12.02;5.60;;;;;;;4.57;38.68;101008.25;5034101;28;20042;-73
2022/03/06 06:08:26;;;;;;;8.73;5.22;;;;;;;4.55;37.58;101015.78;5033555;28;20045;-73
2022/03/06 06:10:54;;;;;;;10.88;5.05;;;;;;;4.53;37.68;101015.19;5033791;28;20033;-73
2022/03/06 06:13:22;;;;;;;9.55;5.60;;;;;;;4.55;37.61;101021.19;5032930;28;20056;-73
2022/03/06 06:15:50;;;;;;;11.25;5.65;;;;;;;4.66;37.41;101016.91;5033031;28;20400;-73
2022/03/06 06:18:18;;;;;;;8.75;5.45;;;;;;;4.62;37.03;101021.13;5033839;28;20045;-74
2022/03/06 06:20:46;;;;;;;11.10;6.15;;;;;;;4.69;36.94;101021.00;5032734;28;20547;-73
2022/03/06 06:23:14;;;;;;;12.60;5.68;;;;;;;4.67;37.20;101032.09;5033750;28;20045;-72
2022/03/06 06:25:42;;;;;;;11.77;5.63;;;;;;;4.80;36.93;101022.94;5033450;28;20042;-73
2022/03/06 06:28:11;;;;;;;8.15;5.35;;;;;;;4.80;36.84;101022.94;5032657;28;20404;-73
2022/03/06 06:30:39;;;;;;;11.00;5.50;;;;;;;4.83;38.03;101030.63;5032688;28;20056;-73
2022/03/06 06:33:07;;;;;;;12.30;5.82;;;;;;;4.85;37.68;101025.00;5033624;28;20052;-73
2022/03/06 06:35:34;;;;;;;11.38;5.30;;;;;;;4.83;37.04;101017.06;5027993;28;20404;-73
2022/03/06 06:38:03;;;;;;;11.13;5.45;;;;;;;4.92;38.24;101031.13;5033189;28;20052;-72
2022/03/06 06:40:32;;;;;;;9.63;4.88;;;;;;;5.01;37.40;101045.19;5032635;28;20056;-72
2022/03/06 06:43:00;;;;;;;9.88;5.28;;;;;;;5.04;36.71;101028.44;5032930;28;20049;-72
2022/03/06 06:45:28;;;;;;;12.10;5.32;;;;;;;5.11;36.79;101034.63;5032521;28;20057;-73
2022/03/06 06:47:56;;;;;;;11.43;5.47;;;;;;;5.16;36.43;101036.63;5046249;28;20487;-72
2022/03/06 06:50:25;;;;;;;11.13;5.47;;;;;;;5.14;36.59;101037.91;5032806;28;20041;-72
2022/03/06 06:52:53;;;;;;;13.07;6.32;;;;;;;5.24;36.71;101044.44;5032281;28;20073;-73
2022/03/06 06:55:27;;;;;;;12.02;5.80;;;;;;;5.25;36.81;101035.22;5031929;28;20052;-73
2022/03/06 06:57:54;;;;;;;10.68;5.45;;;;;;;5.19;37.35;101044.28;5032805;28;20519;-73
2022/03/06 07:00:22;;;;;;;9.93;5.57;;;;;;;5.41;36.07;101042.91;5032460;28;20045;-73
2022/03/06 07:02:50;;;;;;;10.23;5.72;;;;;;;5.48;36.04;101041.75;5032396;28;20045;-73
2022/03/06 07:05:19;;;;;;;11.27;5.47;;;;;;;5.64;37.40;101042.13;5031517;28;20500;-72
2022/03/06 07:07:46;;;;;;;9.00;5.88;;;;;;;5.73;35.99;101042.59;5032227;28;20056;-73
2022/03/06 07:10:14;;;;;;;9.57;5.97;;;;;;;5.95;37.21;101048.25;5032114;28;20033;-73
2022/03/06 07:12:43;;;;;;;8.13;5.50;;;;;;;6.03;36.58;101047.94;5031741;28;20141;-73
2022/03/06 07:15:13;;;;;;;8.35;5.10;;;;;;;6.16;36.55;101049.56;5014201;28;20484;-73
2022/03/06 07:17:41;;;;;;;10.27;5.72;;;;;;;6.44;35.22;101058.88;5031389;28;20065;-73
2022/03/06 07:20:10;;;;;;;10.70;5.40;;;;;;;6.12;37.29;101058.44;5030699;28;20045;-73
2022/03/06 07:22:38;;;;;;;10.38;5.80;;;;;;;6.08;35.28;101049.94;5032387;28;20041;-73
2022/03/06 07:25:07;;;;;;;11.20;5.65;;;;;;;6.11;35.41;101052.19;5030827;28;20053;-72
2022/03/06 07:27:35;;;;;;;10.93;5.75;;;;;;;6.50;35.00;101058.97;5031873;28;20038;-73
2022/03/06 07:30:03;;;;;;;9.35;5.53;;;;;;;6.45;36.01;101051.50;5031479;28;20053;-73
2022/03/06 07:32:31;;;;;;;9.18;5.55;;;;;;;6.72;34.60;101062.69;5030318;28;20049;-75
2022/03/06 07:35:04;;;;;;;13.65;5.65;;;;;;;7.12;33.96;101052.81;5032283;28;20057;-77
2022/03/06 07:37:32;;;;;;;10.82;5.45;;;;;;;6.89;34.47;101056.47;5031166;28;20058;-78
2022/03/06 07:40:00;;;;;;;12.85;5.25;;;;;;;6.51;35.39;101060.63;5030863;28;20041;-77
2022/03/06 07:42:28;;;;;;;10.82;5.38;;;;;;;6.19;35.21;101067.28;5029927;28;20402;-78
2022/03/06 07:44:56;;;;;;;12.15;5.53;;;;;;;6.30;34.90;101050.16;5031678;28;20044;-78
2022/03/06 07:47:24;;;;;;;8.18;5.00;;;;;;;6.33;34.58;101059.72;5027708;28;20045;-77
2022/03/06 07:49:53;;;;;;;9.88;5.65;;;;;;;6.12;34.40;101061.97;5028320;28;20058;-77
2022/03/06 07:52:21;;;;;;;11.25;5.35;;;;;;;6.10;34.89;101064.13;5029384;28;20496;-78
2022/03/06 07:54:49;;;;;;;7.90;5.45;;;;;;;6.35;34.54;101057.56;5026539;28;20041;-76
2022/03/06 07:57:17;;;;;;;11.65;5.78;;;;;;;6.29;34.90;101061.25;5028789;28;20050;-76
2022/03/06 07:59:45;;;;;;;8.40;4.90;;;;;;;6.37;34.81;101066.34;5030287;28;20049;-77
2022/03/06 08:02:13;;;;;;;7.88;5.15;;;;;;;6.35;34.44;101067.63;5029380;28;20044;-77
2022/03/06 08:04:41;;;;;;;10.93;6.57;;;;;;;6.50;34.63;101058.97;5029284;28;20411;-77
2022/03/06 08:07:09;;;;;;;8.88;5.43;;;;;;;6.56;34.08;101071.59;5030183;28;20042;-77
2022/03/06 08:09:37;;;;;;;10.93;5.35;;;;;;;7.07;33.12;101058.16;5030230;28;20395;-77
2022/03/06 08:12:06;;;;;;;9.55;5.45;;;;;;;6.96;33.77;101064.47;5030097;28;20045;-78
2022/03/06 08:14:34;;;;;;;10.68;5.13;;;;;;;7.46;33.12;101071.06;5030511;28;20053;-77
2022/03/06 08:17:02;;;;;;;6.63;4.75;;;;;;;7.13;32.77;101065.34;5030516;28;20072;-78
2022/03/06 08:19:30;;;;;;;10.35;5.28;;;;;;;7.61;32.89;101073.22;5030663;28;20042;-78
2022/03/06 08:21:58;;;;;;;8.65;5.47;;;;;;;7.50;32.58;101072.25;5029917;28;20415;-78
2022/03/06 08:24:26;;;;;;;10.52;5.70;;;;;;;7.00;32.38;101071.09;5030007;28;20513;-78
2022/03/06 08:26:54;;;;;;;10.05;5.30;;;;;;;7.01;33.43;101070.03;5030889;28;20041;-78
2022/03/06 08:29:22;;;;;;;11.13;5.60;;;;;;;7.18;33.74;101070.03;5029511;28;20048;-78
2022/03/06 08:31:53;;;;;;;9.25;5.35;;;;;;;7.30;33.07;101078.16;5030378;28;20064;-77
2022/03/06 08:34:21;;;;;;;12.50;6.00;;;;;;;7.85;33.09;101074.94;5033727;28;20053;-79
2022/03/06 08:36:49;;;;;;;8.75;5.70;;;;;;;8.23;33.03;101076.03;5034406;28;20049;-77
2022/03/06 08:39:17;;;;;;;10.23;5.25;;;;;;;8.43;32.35;101077.38;5034379;28;20041;-79
2022/03/06 08:41:46;;;;;;;9.60;5.65;;;;;;;8.50;32.43;101069.81;5031574;28;20052;-77
2022/03/06 08:44:14;;;;;;;9.25;5.57;;;;;;;7.83;32.17;101075.22;5036725;28;20057;-79
2022/03/06 08:46:42;;;;;;;10.00;5.82;;;;;;;8.22;32.44;101077.13;5031936;28;20076;-76
2022/03/06 08:49:11;;;;;;;9.20;5.78;;;;;;;8.09;32.64;101077.47;5030865;28;20050;-75
2022/03/06 08:51:39;;;;;;;10.48;5.57;;;;;;;8.07;31.82;101073.09;5028814;28;20045;-75
2022/03/06 08:54:07;;;;;;;8.27;4.72;;;;;;;7.53;31.96;101085.34;5029969;28;20392;-75
2022/03/06 08:56:35;;;;;;;8.73;5.30;;;;;;;7.39;33.65;101078.59;5033422;28;20057;-77
2022/03/06 08:59:03;;;;;;;10.75;5.72;;;;;;;7.46;32.08;101078.41;5033974;28;20049;-76
2022/03/06 09:01:31;;;;;;;11.48;6.00;;;;;;;7.89;32.18;101078.81;5035803;28;20045;-76
2022/03/06 09:03:59;;;;;;;11.98;6.05;;;;;;;7.83;33.23;101079.81;5015367;28;20045;-77
2022/03/06 09:06:27;;;;;;;10.35;5.25;;;;;;;7.36;32.28;101088.06;5032873;28;20500;-77
2022/03/06 09:08:55;;;;;;;9.48;5.75;;;;;;;7.77;32.29;101084.38;5033834;28;20049;-80
2022/03/06 09:11:23;;;;;;;9.82;5.60;;;;;;;7.52;33.15;101080.97;5033684;28;20072;-77
2022/03/06 09:13:51;;;;;;;9.25;5.25;;;;;;;7.50;33.00;101077.69;5033303;28;20061;-76
2022/03/06 09:16:19;;;;;;;10.82;5.97;;;;;;;7.63;32.95;101078.44;5032859;28;20049;-77
2022/03/06 09:18:47;;;;;;;10.15;5.70;;;;;;;7.41;32.60;101079.16;5033986;28;20514;-78
2022/03/06 09:21:16;;;;;;;9.52;5.03;;;;;;;7.30;33.49;101082.78;5034521;28;20049;-77
2022/03/06 09:23:44;;;;;;;11.60;5.70;;;;;;;7.31;32.27;101078.97;5033477;28;20038;-75
2022/03/06 09:26:12;;;;;;;10.55;5.80;;;;;;;7.35;32.12;101077.41;5036954;28;20503;-76
2022/03/06 09:28:40;;;;;;;9.38;5.38;;;;;;;7.74;32.32;101072.06;5034302;28;20048;-77
2022/03/06 09:31:08;;;;;;;12.63;6.07;;;;;;;7.85;31.75;101073.03;5032894;28;20045;-82
2022/03/06 09:33:36;;;;;;;8.38;5.40;;;;;;;8.38;31.62;101074.59;5031715;28;20507;-80
2022/03/06 09:36:04;;;;;;;11.60;5.75;;;;;;;8.13;32.24;101063.09;5033274;28;20037;-80
2022/03/06 09:38:32;;;;;;;13.68;6.07;;;;;;;8.04;31.71;101073.59;5033190;28;20056;-80
2022/03/06 09:41:03;;;;;;;8.80;5.65;;;;;;;7.85;31.81;101064.03;5032743;28;20068;-80
2022/03/06 09:43:32;;;;;;;11.68;6.25;;;;;;;8.18;32.37;101054.97;5030979;28;20076;-81
2022/03/06 09:46:06;;;;;;;10.68;5.35;;;;;;;8.44;31.32;101068.13;5032496;28;20611;-81
2022/03/06 09:48:35;;;;;;;10.75;6.05;;;;;;;8.44;31.80;101068.94;5032045;28;20054;-81
2022/03/06 09:51:04;;;;;;;7.25;5.28;;;;;;;7.53;31.46;101057.31;5031829;28;20041;-82
2022/03/06 09:53:33;;;;;;;9.90;5.72;;;;;;;8.03;31.57;101060.22;5032114;28;20041;-81
2022/03/06 09:56:01;;;;;;;9.50;5.95;;;;;;;8.52;33.04;101065.00;5032984;28;20076;-77
2022/03/06 09:58:28;;;;;;;12.32;6.20;;;;;;;8.74;31.09;101053.22;5031053;28;20053;-79
2022/03/06 10:00:57;;;;;;;10.25;5.65;;;;;;;8.55;30.84;101053.56;5033041;28;20606;-80
2022/03/06 10:03:25;;;;;;;10.60;5.97;;;;;;;9.12;30.73;101056.91;5032053;28;20045;-81
2022/03/06 10:05:53;;;;;;;8.00;5.20;;;;;;;9.08;29.51;101050.31;5015090;28;20041;-80
2022/03/06 10:08:26;;;;;;;9.90;5.82;;;;;;;9.19;29.53;101055.88;5032674;28;20605;-81
2022/03/06 10:10:56;;;;;;;12.32;5.97;;;;;;;9.37;28.58;101052.75;5031922;28;20048;-81
2022/03/06 10:13:30;;;;;;;10.10;6.18;;;;;;;9.28;31.14;101041.47;5030098;28;20052;-79
2022/03/06 10:16:05;;;;;;;12.57;6.72;;;;;;;9.24;30.14;101045.00;5032715;28;20404;-80
2022/03/06 10:18:39;;;;;;;12.15;5.75;;;;;;;9.49;29.95;101038.91;5030518;28;20381;-77
2022/03/06 10:21:29;;;;;;;11.98;5.80;;;;;;;9.89;30.72;101042.22;5026925;28;20053;-80
2022/03/06 10:24:08;;;;;;;7.88;5.35;;;;;;;10.26;29.93;101026.78;5032931;28;20050;-81
2022/03/06 10:26:42;;;;;;;10.15;6.32;;;;;;;9.95;28.67;101030.22;5033568;28;20033;-79
2022/03/06 10:29:15;;;;;;;12.38;6.63;;;;;;;10.15;29.15;101028.66;5030486;28;20495;-81
2022/03/06 10:31:58;;;;;;;9.45;5.75;;;;;;;10.20;29.45;101019.66;5032556;28;20038;-80
2022/03/06 10:34:38;;;;;;;10.87;6.37;;;;;;;10.42;30.24;101021.41;5033001;28;20053;-80
2022/03/06 10:37:11;;;;;;;10.00;5.80;;;;;;;9.84;29.05;101025.78;5033235;28;20512;-81
2022/03/06 10:39:44;;;;;;;8.63;5.80;;;;;;;10.00;28.35;101025.84;5035276;28;20049;-80
2022/03/06 10:42:20;;;;;;;11.52;6.25;;;;;;;10.32;27.95;101027.66;5034168;28;20045;-80
2022/03/06 10:44:48;;;;;;;9.55;6.75;;;;;;;10.35;30.94;101016.16;5032186;28;20065;-81
2022/03/06 10:47:19;;;;;;;11.43;6.32;;;;;;;10.54;28.49;101023.91;5030161;28;20054;-87
2022/03/06 10:50:02;;;;;;;14.48;6.32;;;;;;;10.45;28.34;101009.94;5032207;28;20045;-84
2022/03/06 10:52:40;;;;;;;10.70;6.80;;;;;;;10.30;29.28;101010.66;4998241;28;20042;-80
2022/03/06 10:55:08;;;;;;;9.93;6.60;;;;;;;10.11;29.42;101005.66;5014390;28;20046;-82
2022/03/06 10:57:36;;;;;;;8.27;5.82;;;;;;;10.52;27.60;101006.94;5032716;28;20046;-81
2022/03/06 11:00:06;;;;;;;11.48;6.68;;;;;;;10.33;28.37;100996.47;5032482;28;20045;-79
2022/03/06 11:02:35;;;;;;;9.35;6.00;;;;;;;11.23;26.07;100997.19;5032217;28;20046;-81
2022/03/06 11:05:06;;;;;;;10.95;6.13;;;;;;;11.60;26.42;100994.44;5032484;28;20053;-80
2022/03/06 11:07:34;;;;;;;10.40;6.80;;;;;;;10.78;28.15;101001.53;5030896;28;20041;-81
2022/03/06 11:10:03;;;;;;;12.80;7.20;;;;;;;10.52;29.03;100998.75;5032138;28;20053;-81
2022/03/06 11:12:32;;;;;;;9.07;6.10;;;;;;;10.22;28.57;100998.34;5014705;28;20038;-82
2022/03/06 11:15:01;;;;;;;9.85;6.53;;;;;;;11.19;27.96;100998.03;5031799;28;20064;-82
2022/03/06 11:17:30;;;;;;;11.05;6.88;;;;;;;11.43;29.00;100990.91;5030784;28;20060;-82
2022/03/06 11:19:58;;;;;;;11.93;7.25;;;;;;;11.91;26.70;100991.63;5030334;28;20079;-82
2022/03/06 11:22:42;;;;;;;11.82;6.40;;;;;;;12.13;26.98;100985.84;5031895;28;20045;-81
2022/03/06 11:25:14;;;;;;;10.82;6.50;;;;;;;11.38;26.46;100971.72;5042066;28;20052;-82
2022/03/06 11:27:54;;;;;;;9.68;5.93;;;;;;;10.80;27.44;100972.00;5031719;28;20045;-81
2022/03/06 11:30:22;;;;;;;11.63;6.25;;;;;;;10.17;29.02;100971.78;5030578;28;20041;-82
2022/03/06 11:33:08;;;;;;;9.88;6.25;;;;;;;10.85;29.36;100977.47;5039291;28;20385;-83